Montour, Iowa
Current Conditions -  °F | °C
As of 4:53 PM on Wednesday 22 Oct 2014 (Local Time) from KMIW Reporting Station
Broken Clouds Broken Clouds  
Wind Chill: 61°   Ceiling: 8500
Heat Index: 61°   Visibility: 10mi
Dew Point: 42°   Wind: 13mph
Humidity: 50%   Direction: 140°SE
Pressure: 30.13"   Gusts: 24mph
Location:  41.98°N, 92.71°W
Report Text: KMIW 222153Z AUTO 14011G21KT 10SM FEW039 SCT060 BKN085 16/06 A3013 RMK AO2 SLP204 T01610056
Loading
Personal Weather Stations






























Interactive Weather Map
Tropical Storm Tracking
New forecast layout! Learn more

10-Day Weather Forecast

Advertisements
Track Severe Weather on mobile